createdAt,value
2018-10-16T00:01:31.555Z,14.70
2018-10-16T00:02:31.562Z,14.65
2018-10-16T00:04:24.480Z,14.55
2018-10-16T00:05:24.481Z,14.54
2018-10-16T00:07:17.657Z,14.62
2018-10-16T00:08:17.679Z,14.62
2018-10-16T00:10:10.593Z,14.64
2018-10-16T00:11:10.600Z,14.61
2018-10-16T00:13:03.506Z,14.57
2018-10-16T00:14:03.523Z,14.54
2018-10-16T00:15:56.435Z,14.61
2018-10-16T00:16:56.450Z,14.60
2018-10-16T00:18:49.353Z,14.57
2018-10-16T00:19:49.370Z,14.54
2018-10-16T00:21:42.287Z,14.52
2018-10-16T00:22:42.292Z,14.51
2018-10-16T00:24:35.206Z,14.52
2018-10-16T00:25:35.215Z,14.50
2018-10-16T00:27:28.120Z,14.46
2018-10-16T00:28:28.137Z,14.40
2018-10-16T00:30:21.051Z,14.47
2018-10-16T00:31:21.061Z,14.39
2018-10-16T00:33:13.965Z,14.39
2018-10-16T00:34:13.983Z,14.42
2018-10-16T00:36:06.898Z,14.43
2018-10-16T00:37:06.906Z,14.33
2018-10-16T00:38:59.985Z,14.40
2018-10-16T00:40:00.001Z,14.47
2018-10-16T00:41:52.918Z,14.43
2018-10-16T00:42:52.923Z,14.46
2018-10-16T00:44:45.833Z,14.46
2018-10-16T00:45:45.851Z,14.42
2018-10-16T00:47:38.767Z,14.43
2018-10-16T00:48:38.771Z,14.43
2018-10-16T00:50:31.684Z,14.39
2018-10-16T00:51:31.695Z,14.35
2018-10-16T00:53:24.602Z,14.28
2018-10-16T00:54:24.622Z,14.39
2018-10-16T00:56:17.536Z,14.27
2018-10-16T00:57:17.542Z,14.35
2018-10-16T00:59:10.449Z,14.28
2018-10-16T01:00:10.464Z,14.33
2018-10-16T01:02:03.380Z,14.29
2018-10-16T01:03:03.389Z,14.25
2018-10-16T01:04:56.393Z,14.29
2018-10-16T01:05:56.310Z,14.33
2018-10-16T01:07:49.225Z,14.37
2018-10-16T01:08:49.232Z,14.42
2018-10-16T01:10:42.147Z,14.32
2018-10-16T01:11:42.159Z,14.46
2018-10-16T01:13:35.067Z,14.37
2018-10-16T01:14:35.082Z,14.39
2018-10-16T01:16:28.006Z,14.39
2018-10-16T01:17:28.012Z,14.35
2018-10-16T01:19:20.919Z,14.42
2018-10-16T01:20:20.934Z,14.42
2018-10-16T01:22:13.849Z,14.43
2018-10-16T01:23:13.858Z,14.43
2018-10-16T01:25:06.764Z,14.54
2018-10-16T01:26:06.781Z,14.50
2018-10-16T01:27:59.693Z,14.60
2018-10-16T01:28:59.707Z,14.55
2018-10-16T01:30:52.607Z,14.51
2018-10-16T01:31:52.622Z,14.57
2018-10-16T01:33:45.541Z,14.65
2018-10-16T01:34:45.548Z,14.65
2018-10-16T01:36:38.461Z,14.62
2018-10-16T01:37:38.471Z,14.70
2018-10-16T01:39:31.377Z,14.65
2018-10-16T01:40:31.394Z,14.69
2018-10-16T01:42:24.319Z,14.86
2018-10-16T01:43:24.331Z,14.89
2018-10-16T01:45:17.237Z,14.77
2018-10-16T01:46:17.255Z,14.94
2018-10-16T01:48:10.172Z,14.88
2018-10-16T01:49:10.181Z,14.89
2018-10-16T01:51:03.092Z,14.89
2018-10-16T01:52:03.114Z,14.81
2018-10-16T01:53:56.021Z,14.86
2018-10-16T01:54:56.034Z,14.81
2018-10-16T01:56:48.937Z,14.75
2018-10-16T01:57:48.954Z,14.83
2018-10-16T01:59:41.870Z,14.86
2018-10-16T02:00:41.878Z,14.89
2018-10-16T02:02:34.838Z,14.78
2018-10-16T02:03:34.801Z,14.80
2018-10-16T02:05:27.706Z,14.75
2018-10-16T02:06:27.724Z,14.80
2018-10-16T02:08:20.634Z,14.84
2018-10-16T02:09:20.646Z,14.88
2018-10-16T02:11:13.553Z,14.86
2018-10-16T02:12:13.568Z,14.91
2018-10-16T02:14:06.481Z,14.89
2018-10-16T02:15:06.493Z,14.80
2018-10-16T02:16:59.394Z,14.86
2018-10-16T02:17:59.418Z,14.83
2018-10-16T02:19:52.332Z,14.75
2018-10-16T02:20:52.337Z,14.68
2018-10-16T02:22:45.266Z,14.70
2018-10-16T02:23:45.261Z,14.69
2018-10-16T02:25:38.170Z,14.61
2018-10-16T02:26:38.183Z,14.69
2018-10-16T02:28:31.092Z,14.84
2018-10-16T02:29:31.103Z,14.84
2018-10-16T02:31:24.015Z,14.84
2018-10-16T02:32:24.036Z,14.94
2018-10-16T02:34:16.951Z,14.96
2018-10-16T02:35:16.955Z,14.99
2018-10-16T02:37:09.861Z,14.88
2018-10-16T02:38:09.880Z,14.89
2018-10-16T02:40:02.795Z,14.95
2018-10-16T02:41:02.807Z,15.01
2018-10-16T02:42:55.710Z,15.09
2018-10-16T02:43:55.730Z,15.09
2018-10-16T02:45:48.643Z,15.11
2018-10-16T02:46:48.651Z,15.09
2018-10-16T02:48:41.565Z,15.09
2018-10-16T02:49:41.577Z,15.06
2018-10-16T02:51:34.485Z,15.01
2018-10-16T02:52:34.503Z,14.99
2018-10-16T02:54:27.439Z,14.95
2018-10-16T02:55:27.449Z,14.98
2018-10-16T02:57:20.358Z,15.01
2018-10-16T02:58:20.374Z,14.95
2018-10-16T03:00:13.285Z,15.01
2018-10-16T03:01:13.297Z,15.01
2018-10-16T03:03:06.211Z,14.94
2018-10-16T03:04:06.221Z,14.92
2018-10-16T03:05:59.133Z,15.10
2018-10-16T03:06:59.143Z,15.11
2018-10-16T03:08:52.047Z,15.13
2018-10-16T03:09:52.066Z,15.19
2018-10-16T03:11:44.980Z,15.25
2018-10-16T03:12:44.991Z,15.16
2018-10-16T03:14:37.903Z,15.27
2018-10-16T03:15:37.914Z,15.25
2018-10-16T03:17:30.823Z,15.23
2018-10-16T03:18:30.839Z,15.21
2018-10-16T03:20:23.796Z,15.27
2018-10-16T03:21:23.764Z,15.27
2018-10-16T03:23:16.672Z,15.32
2018-10-16T03:24:16.690Z,15.27
2018-10-16T03:26:09.605Z,15.31
2018-10-16T03:27:09.614Z,15.35
2018-10-16T03:29:02.520Z,15.36
2018-10-16T03:30:02.537Z,15.38
2018-10-16T03:31:55.449Z,15.39
2018-10-16T03:32:55.461Z,15.36
2018-10-16T03:34:48.370Z,15.41
2018-10-16T03:35:48.390Z,15.41
2018-10-16T03:37:41.302Z,15.38
2018-10-16T03:38:41.316Z,15.38
2018-10-16T03:40:34.233Z,15.38
2018-10-16T03:41:34.243Z,15.39
2018-10-16T03:43:27.147Z,15.35
2018-10-16T03:44:27.164Z,15.35
2018-10-16T03:46:20.078Z,15.34
2018-10-16T03:47:20.089Z,15.36
2018-10-16T03:49:12.994Z,15.29
2018-10-16T03:50:13.015Z,15.23
2018-10-16T03:52:05.926Z,15.19
2018-10-16T03:53:05.937Z,15.23
2018-10-16T03:54:58.849Z,15.17
2018-10-16T03:55:58.867Z,15.25
2018-10-16T03:57:51.779Z,15.28
2018-10-16T03:58:51.791Z,15.27
2018-10-16T04:00:44.707Z,15.20
2018-10-16T04:01:44.712Z,15.13
2018-10-16T04:03:37.632Z,15.20
2018-10-16T04:04:37.639Z,15.09
2018-10-16T04:06:30.564Z,15.14
2018-10-16T04:07:30.568Z,15.19
2018-10-16T04:09:23.468Z,15.20
2018-10-16T04:10:23.488Z,15.13
2018-10-16T04:12:16.401Z,15.17
2018-10-16T04:13:16.410Z,15.20
2018-10-16T04:15:09.321Z,15.16
2018-10-16T04:16:09.340Z,15.17
2018-10-16T04:18:02.252Z,15.06
2018-10-16T04:19:02.261Z,15.20
2018-10-16T04:20:55.170Z,15.23
2018-10-16T04:21:55.185Z,15.19
2018-10-16T04:23:48.105Z,15.21
2018-10-16T04:24:48.110Z,15.31
2018-10-16T04:26:41.023Z,15.35
2018-10-16T04:27:41.031Z,15.35
2018-10-16T04:29:34.278Z,15.36
2018-10-16T04:30:34.296Z,15.35
2018-10-16T04:32:27.210Z,15.35
2018-10-16T04:33:27.219Z,15.23
2018-10-16T04:35:20.124Z,15.32
2018-10-16T04:36:20.149Z,15.28
2018-10-16T04:38:13.066Z,15.29
2018-10-16T04:39:13.080Z,15.32
2018-10-16T04:41:06.007Z,15.25
2018-10-16T04:42:06.016Z,15.29
2018-10-16T04:43:58.924Z,15.34
2018-10-16T04:44:58.931Z,15.25
2018-10-16T04:46:51.847Z,15.20
2018-10-16T04:47:51.864Z,15.17
2018-10-16T04:49:45.799Z,15.19
2018-10-16T04:50:45.806Z,15.19
2018-10-16T04:52:38.725Z,15.13
2018-10-16T04:53:38.732Z,15.23
2018-10-16T04:55:31.642Z,15.20
2018-10-16T04:56:31.659Z,15.14
2018-10-16T04:58:24.570Z,15.20
2018-10-16T04:59:24.582Z,15.20
2018-10-16T05:01:17.488Z,15.25
2018-10-16T05:02:17.506Z,15.25
2018-10-16T05:04:10.471Z,15.32
2018-10-16T05:05:10.432Z,15.29
2018-10-16T05:07:03.336Z,15.36
2018-10-16T05:08:03.354Z,15.38
2018-10-16T05:09:56.267Z,15.38
2018-10-16T05:10:56.280Z,15.27
2018-10-16T05:12:49.187Z,15.23
2018-10-16T05:13:49.203Z,15.23
2018-10-16T05:15:42.126Z,15.29
2018-10-16T05:16:42.138Z,15.27
2018-10-16T05:18:35.057Z,15.29
2018-10-16T05:19:35.063Z,15.38
2018-10-16T05:21:27.963Z,15.38
2018-10-16T05:22:27.982Z,15.34
2018-10-16T05:24:20.895Z,15.25
2018-10-16T05:25:20.907Z,15.28
2018-10-16T05:27:13.814Z,15.20
2018-10-16T05:28:13.830Z,15.20
2018-10-16T05:30:06.757Z,15.16
2018-10-16T05:31:06.833Z,15.11
2018-10-16T05:32:59.662Z,15.03
2018-10-16T05:33:59.678Z,14.98
2018-10-16T05:35:52.589Z,15.02
2018-10-16T05:36:52.603Z,14.95
2018-10-16T05:38:45.508Z,14.86
2018-10-16T05:39:45.527Z,14.89
2018-10-16T05:41:38.442Z,15.01
2018-10-16T05:42:38.451Z,15.03
2018-10-16T05:44:31.365Z,15.06
2018-10-16T05:45:31.376Z,15.10
2018-10-16T05:47:24.279Z,15.20
2018-10-16T05:48:24.295Z,15.19
2018-10-16T05:50:17.211Z,15.28
2018-10-16T05:51:17.219Z,15.21
2018-10-16T05:53:10.126Z,15.23
2018-10-16T05:54:10.188Z,15.20
2018-10-16T05:56:03.060Z,15.25
2018-10-16T05:57:03.069Z,15.25
2018-10-16T05:58:55.978Z,15.20
2018-10-16T05:59:55.998Z,15.19
2018-10-16T06:01:48.908Z,15.32
2018-10-16T06:02:48.918Z,15.31
2018-10-16T06:04:41.843Z,15.35
2018-10-16T06:05:41.886Z,15.31
2018-10-16T06:07:34.750Z,15.28
2018-10-16T06:08:34.764Z,15.35
2018-10-16T06:10:27.688Z,15.28
2018-10-16T06:11:27.707Z,15.21
2018-10-16T06:13:20.606Z,15.21
2018-10-16T06:14:20.623Z,15.19
2018-10-16T06:16:13.534Z,15.31
2018-10-16T06:17:13.546Z,15.32
2018-10-16T06:19:06.451Z,15.38
2018-10-16T06:20:06.477Z,15.32
2018-10-16T06:21:59.385Z,15.34
2018-10-16T06:22:59.391Z,15.32
2018-10-16T06:24:52.302Z,15.21
2018-10-16T06:25:52.317Z,15.31
2018-10-16T06:27:45.244Z,15.20
2018-10-16T06:28:45.246Z,15.32
2018-10-16T06:30:38.160Z,15.32
2018-10-16T06:31:38.164Z,15.32
2018-10-16T06:33:31.081Z,15.39
2018-10-16T06:34:31.091Z,15.31
2018-10-16T06:36:24.006Z,15.41
2018-10-16T06:37:24.016Z,15.51
2018-10-16T06:39:16.928Z,15.38
2018-10-16T06:40:16.979Z,15.49
2018-10-16T06:42:09.857Z,15.56
2018-10-16T06:43:09.870Z,15.59
2018-10-16T06:45:02.775Z,15.67
2018-10-16T06:46:02.799Z,15.62
2018-10-16T06:47:55.825Z,15.69
2018-10-16T06:48:55.959Z,15.68
2018-10-16T06:50:48.635Z,15.74
2018-10-16T06:51:48.649Z,15.80
2018-10-16T06:53:41.569Z,15.83
2018-10-16T06:54:41.624Z,15.80
2018-10-16T06:56:34.492Z,15.87
2018-10-16T06:57:34.498Z,15.92
2018-10-16T06:59:27.404Z,16.09
2018-10-16T07:00:27.425Z,16.02
2018-10-16T07:02:20.341Z,16.05
2018-10-16T07:03:20.352Z,16.07
2018-10-16T07:05:13.267Z,16.21
2018-10-16T07:06:13.272Z,16.12
2018-10-16T07:08:06.191Z,16.20
2018-10-16T07:09:06.202Z,16.20
2018-10-16T07:10:59.115Z,16.23
2018-10-16T07:11:59.134Z,16.17
2018-10-16T07:13:52.049Z,16.21
2018-10-16T07:14:52.094Z,16.14
2018-10-16T07:16:44.966Z,16.14
2018-10-16T07:17:44.989Z,16.09
2018-10-16T07:19:37.908Z,16.17
2018-10-16T07:20:37.961Z,16.17
2018-10-16T07:22:31.002Z,16.33
2018-10-16T07:23:31.072Z,16.43
2018-10-16T07:25:23.926Z,16.45
2018-10-16T07:26:23.937Z,16.50
2018-10-16T07:28:16.855Z,16.58
2018-10-16T07:29:16.865Z,16.52
2018-10-16T07:31:09.773Z,16.60
2018-10-16T07:32:09.814Z,16.67
2018-10-16T07:34:02.738Z,16.81
2018-10-16T07:35:02.742Z,16.93
2018-10-16T07:36:55.643Z,17.06
2018-10-16T07:37:55.758Z,17.01
2018-10-16T07:39:48.584Z,17.14
2018-10-16T07:40:48.593Z,17.22
2018-10-16T07:42:42.014Z,17.30
2018-10-16T07:43:42.036Z,17.34
2018-10-16T07:45:34.960Z,17.48
2018-10-16T07:46:34.979Z,17.58
2018-10-16T07:48:27.972Z,17.72
2018-10-16T07:49:27.898Z,17.78
2018-10-16T07:51:21.014Z,17.86
2018-10-16T07:52:21.015Z,17.82
2018-10-16T07:54:13.938Z,17.99
2018-10-16T07:55:13.948Z,17.95
2018-10-16T07:57:06.931Z,18.08
2018-10-16T07:58:06.906Z,18.08
2018-10-16T07:59:59.826Z,18.15
2018-10-16T08:00:59.838Z,18.12
2018-10-16T08:02:52.746Z,18.11
2018-10-16T08:03:52.785Z,18.14
2018-10-16T08:05:45.681Z,18.26
2018-10-16T08:06:45.693Z,18.30
2018-10-16T08:08:38.605Z,18.44
2018-10-16T08:09:38.623Z,18.48
2018-10-16T08:11:31.681Z,18.44
2018-10-16T08:12:31.554Z,18.35
2018-10-16T08:14:24.472Z,18.42
2018-10-16T08:15:24.489Z,18.42
2018-10-16T08:17:17.501Z,18.44
2018-10-16T08:18:17.416Z,18.44
2018-10-16T08:20:10.356Z,18.45
2018-10-16T08:21:10.352Z,18.50
2018-10-16T08:23:03.264Z,18.52
2018-10-16T08:24:03.282Z,18.52
2018-10-16T08:25:56.205Z,18.54
2018-10-16T08:26:56.255Z,18.52
2018-10-16T08:28:49.122Z,18.66
2018-10-16T08:29:49.141Z,18.81
2018-10-16T08:31:42.075Z,18.91
2018-10-16T08:32:42.075Z,18.98
2018-10-16T08:34:34.986Z,19.00
2018-10-16T08:35:35.007Z,19.02
2018-10-16T08:37:27.964Z,19.25
2018-10-16T08:38:27.949Z,19.16
2018-10-16T08:40:20.858Z,19.26
2018-10-16T08:41:20.882Z,19.10
2018-10-16T08:43:13.838Z,19.11
2018-10-16T08:44:13.802Z,19.26
2018-10-16T08:46:06.720Z,19.32
2018-10-16T08:47:06.735Z,19.36
2018-10-16T08:48:59.686Z,19.47
2018-10-16T08:49:59.667Z,19.58
2018-10-16T08:51:52.588Z,19.76
2018-10-16T08:52:52.602Z,19.65
2018-10-16T08:54:45.550Z,19.71
2018-10-16T08:55:45.533Z,19.76
2018-10-16T08:57:38.513Z,19.87
2018-10-16T08:58:38.468Z,19.92
2018-10-16T09:00:31.398Z,20.11
2018-10-16T09:01:31.400Z,20.16
2018-10-16T09:03:24.321Z,20.10
2018-10-16T09:04:24.341Z,19.96
2018-10-16T09:06:17.277Z,20.06
2018-10-16T09:07:17.365Z,20.14
2018-10-16T09:09:10.232Z,20.16
2018-10-16T09:10:10.226Z,20.11
2018-10-16T09:12:03.148Z,19.96
2018-10-16T09:13:03.257Z,20.02
2018-10-16T09:14:56.076Z,20.14
2018-10-16T09:15:56.100Z,20.36
2018-10-16T09:17:49.092Z,20.51
2018-10-16T09:18:49.042Z,20.67
2018-10-16T09:20:42.010Z,20.89
2018-10-16T09:21:42.005Z,21.03
2018-10-16T09:23:34.931Z,21.25
2018-10-16T09:24:34.968Z,21.29
2018-10-16T09:26:27.877Z,21.47
2018-10-16T09:27:27.880Z,21.53
2018-10-16T09:29:20.800Z,21.64
2018-10-16T09:30:20.823Z,21.71
2018-10-16T09:32:13.772Z,21.83
2018-10-16T09:33:13.761Z,21.88
2018-10-16T09:35:06.678Z,21.88
2018-10-16T09:36:06.700Z,21.75
2018-10-16T09:37:59.653Z,21.79
2018-10-16T09:38:59.640Z,21.80
2018-10-16T09:40:52.579Z,21.75
2018-10-16T09:41:52.580Z,21.86
2018-10-16T09:43:45.504Z,21.91
2018-10-16T09:44:45.553Z,22.00
2018-10-16T09:46:38.445Z,22.00
2018-10-16T09:47:38.455Z,21.80
2018-10-16T09:49:31.419Z,21.99
2018-10-16T09:50:31.399Z,22.10
2018-10-16T09:52:24.327Z,22.24
2018-10-16T09:53:24.340Z,22.31
2018-10-16T09:55:17.260Z,22.31
2018-10-16T09:56:17.286Z,22.35
2018-10-16T09:58:10.222Z,22.46
2018-10-16T09:59:10.260Z,22.54
2018-10-16T10:01:03.270Z,22.46
2018-10-16T10:02:03.177Z,22.47
2018-10-16T10:03:56.099Z,22.40
2018-10-16T10:04:56.115Z,22.33
2018-10-16T10:06:49.031Z,22.30
2018-10-16T10:07:49.056Z,22.46
2018-10-16T10:09:42.008Z,22.52
2018-10-16T10:10:41.995Z,22.61
2018-10-16T10:12:34.923Z,22.76
2018-10-16T10:13:34.937Z,22.80
2018-10-16T10:15:27.853Z,22.85
2018-10-16T10:16:27.877Z,22.90
2018-10-16T10:18:20.799Z,22.86
2018-10-16T10:19:20.817Z,22.86
2018-10-16T10:21:13.729Z,22.80
2018-10-16T10:22:13.755Z,22.55
2018-10-16T10:24:06.678Z,22.57
2018-10-16T10:25:06.700Z,22.64
2018-10-16T10:26:59.657Z,22.68
2018-10-16T10:27:59.680Z,22.65
2018-10-16T10:29:52.638Z,22.85
2018-10-16T10:30:52.617Z,22.85
2018-10-16T10:32:45.532Z,22.80
2018-10-16T10:33:45.555Z,22.88
2018-10-16T10:35:38.561Z,22.88
2018-10-16T10:36:38.492Z,22.90
2018-10-16T10:38:31.418Z,22.91
2018-10-16T10:39:31.431Z,22.94
2018-10-16T10:41:24.351Z,22.97
2018-10-16T10:42:24.376Z,22.90
2018-10-16T10:44:17.393Z,22.91
2018-10-16T10:45:17.321Z,22.91
2018-10-16T10:47:10.234Z,22.83
2018-10-16T10:48:10.257Z,22.79
2018-10-16T10:50:03.228Z,22.83
2018-10-16T10:51:03.429Z,22.91
2018-10-16T10:52:56.109Z,22.92
2018-10-16T10:53:56.131Z,22.85
2018-10-16T10:55:49.057Z,22.90
2018-10-16T10:56:49.096Z,22.88
2018-10-16T10:58:41.993Z,22.94
2018-10-16T10:59:42.015Z,22.97
2018-10-16T11:01:34.939Z,22.90
2018-10-16T11:02:34.952Z,23.01
2018-10-16T11:04:27.878Z,23.05
2018-10-16T11:05:27.895Z,23.05
2018-10-16T11:07:20.808Z,23.15
2018-10-16T11:08:20.833Z,23.12
2018-10-16T11:10:13.756Z,22.95
2018-10-16T11:11:13.771Z,23.05
2018-10-16T11:13:06.687Z,23.01
2018-10-16T11:14:06.711Z,22.97
2018-10-16T11:15:59.632Z,23.04
2018-10-16T11:16:59.646Z,23.05
2018-10-16T11:18:52.574Z,23.15
2018-10-16T11:19:52.600Z,23.12
2018-10-16T11:21:45.525Z,23.20
2018-10-16T11:22:45.537Z,23.25
2018-10-16T11:24:38.454Z,23.23
2018-10-16T11:25:38.476Z,23.17
2018-10-16T11:27:31.409Z,23.35
2018-10-16T11:28:31.427Z,23.38
2018-10-16T11:30:24.442Z,23.36
2018-10-16T11:31:24.378Z,23.42
2018-10-16T11:33:17.385Z,23.48
2018-10-16T11:34:17.345Z,23.48
2018-10-16T11:36:10.269Z,23.57
2018-10-16T11:37:10.400Z,23.50
2018-10-16T11:39:03.254Z,23.51
2018-10-16T11:40:03.232Z,23.48
2018-10-16T11:41:56.186Z,23.43
2018-10-16T11:42:56.201Z,23.53
2018-10-16T11:44:49.115Z,23.40
2018-10-16T11:45:49.190Z,23.33
2018-10-16T11:47:42.063Z,23.46
2018-10-16T11:48:42.080Z,23.46
2018-10-16T11:50:34.996Z,23.60
2018-10-16T11:51:35.018Z,23.68
2018-10-16T11:53:27.941Z,23.68
2018-10-16T11:54:27.958Z,23.61
2018-10-16T11:56:20.887Z,23.70
2018-10-16T11:57:20.899Z,23.72
2018-10-16T11:59:13.880Z,23.78
2018-10-16T12:00:13.839Z,23.87
2018-10-16T12:02:06.775Z,23.75
2018-10-16T12:03:06.780Z,23.75
2018-10-16T12:04:59.703Z,23.80
2018-10-16T12:05:59.736Z,23.87
2018-10-16T12:07:52.658Z,23.98
2018-10-16T12:08:52.674Z,24.08
2018-10-16T12:10:45.673Z,24.28
2018-10-16T12:11:45.607Z,24.28
2018-10-16T12:13:38.716Z,24.34
2018-10-16T12:14:38.624Z,24.42
2018-10-16T12:16:31.573Z,24.43
2018-10-16T12:17:31.590Z,24.52
2018-10-16T12:19:24.549Z,24.40
2018-10-16T12:20:24.540Z,24.39
2018-10-16T12:22:17.474Z,24.50
2018-10-16T12:23:17.508Z,24.52
2018-10-16T12:25:10.527Z,24.45
2018-10-16T12:26:10.440Z,24.43
2018-10-16T12:28:03.371Z,24.52
2018-10-16T12:29:03.492Z,24.46
2018-10-16T12:30:56.342Z,24.46
2018-10-16T12:31:56.337Z,24.39
2018-10-16T12:33:49.260Z,24.53
2018-10-16T12:34:49.275Z,24.60
2018-10-16T12:36:42.197Z,24.68
2018-10-16T12:37:42.224Z,24.77
2018-10-16T12:39:35.200Z,24.68
2018-10-16T12:40:35.175Z,24.71
2018-10-16T12:42:28.089Z,24.87
2018-10-16T12:43:28.312Z,24.80
2018-10-16T12:45:21.038Z,24.88
2018-10-16T12:46:21.061Z,25.02
2018-10-16T12:48:14.071Z,25.05
2018-10-16T12:49:14.004Z,25.10
2018-10-16T12:51:06.997Z,25.27
2018-10-16T12:52:06.943Z,25.32
2018-10-16T12:53:59.885Z,25.30
2018-10-16T12:54:59.883Z,25.27
2018-10-16T12:56:52.950Z,25.40
2018-10-16T12:57:52.829Z,25.46
2018-10-16T12:59:45.763Z,25.52
2018-10-16T13:00:45.781Z,25.54
2018-10-16T13:02:38.695Z,25.70
2018-10-16T13:03:38.779Z,25.70
2018-10-16T13:05:31.648Z,25.45
2018-10-16T13:06:31.670Z,25.46
2018-10-16T13:08:24.600Z,25.40
2018-10-16T13:09:24.616Z,25.45
2018-10-16T13:11:17.625Z,25.32
2018-10-16T13:12:17.561Z,25.33
2018-10-16T13:14:10.567Z,25.33
2018-10-16T13:15:10.511Z,25.47
2018-10-16T13:17:03.600Z,25.47
2018-10-16T13:18:03.447Z,25.57
2018-10-16T13:19:56.435Z,25.51
2018-10-16T13:20:56.391Z,25.52
2018-10-16T13:22:49.308Z,25.64
2018-10-16T13:23:49.361Z,25.72
2018-10-16T13:25:42.259Z,25.76
2018-10-16T13:26:42.275Z,25.79
2018-10-16T13:28:35.235Z,25.76
2018-10-16T13:29:35.351Z,25.67
2018-10-16T13:31:28.157Z,25.73
2018-10-16T13:32:28.182Z,25.82
2018-10-16T13:34:21.116Z,25.77
2018-10-16T13:35:21.651Z,25.85
2018-10-16T13:37:14.047Z,25.91
2018-10-16T13:38:14.121Z,26.02
2018-10-16T13:40:07.022Z,26.09
2018-10-16T13:41:07.017Z,26.07
2018-10-16T13:43:00.981Z,26.30
2018-10-16T13:44:01.004Z,26.37
2018-10-16T13:45:53.925Z,26.39
2018-10-16T13:46:53.904Z,26.40
2018-10-16T13:48:46.847Z,26.44
2018-10-16T13:49:46.872Z,26.40
2018-10-16T13:51:39.832Z,26.35
2018-10-16T13:52:39.847Z,26.36
2018-10-16T13:54:32.784Z,26.07
2018-10-16T13:55:32.803Z,26.06
2018-10-16T13:57:25.731Z,25.99
2018-10-16T13:58:25.753Z,25.87
2018-10-16T14:00:18.708Z,25.70
2018-10-16T14:01:18.720Z,25.82
2018-10-16T14:03:11.644Z,25.85
2018-10-16T14:04:11.697Z,25.83
2018-10-16T14:06:04.602Z,25.67
2018-10-16T14:07:04.624Z,25.67
2018-10-16T14:08:57.564Z,25.62
2018-10-16T14:09:57.616Z,25.57
2018-10-16T14:11:50.705Z,25.57
2018-10-16T14:12:50.730Z,25.61
2018-10-16T14:14:43.666Z,25.52
2018-10-16T14:15:43.672Z,25.45
2018-10-16T14:17:36.592Z,25.55
2018-10-16T14:18:36.617Z,25.51
2018-10-16T14:20:29.541Z,25.39
2018-10-16T14:21:29.559Z,25.30
2018-10-16T14:23:22.481Z,25.30
2018-10-16T14:24:22.508Z,25.35
2018-10-16T14:26:15.509Z,25.32
2018-10-16T14:27:15.449Z,25.32
2018-10-16T14:29:08.368Z,25.20
2018-10-16T14:30:08.396Z,25.13
2018-10-16T14:32:01.329Z,24.84
2018-10-16T14:33:01.346Z,24.95
2018-10-16T14:34:54.260Z,24.78
2018-10-16T14:35:54.285Z,24.77
2018-10-16T14:37:47.220Z,24.68
2018-10-16T14:38:47.238Z,24.58
2018-10-16T14:40:40.460Z,24.58
2018-10-16T14:41:40.248Z,24.67
2018-10-16T14:43:33.128Z,24.76
2018-10-16T14:44:33.206Z,24.76
2018-10-16T14:46:26.085Z,24.85
2018-10-16T14:47:26.104Z,24.73
2018-10-16T14:49:19.024Z,24.77
2018-10-16T14:50:19.053Z,24.81
2018-10-16T14:52:12.205Z,24.95
2018-10-16T14:53:12.188Z,24.76
2018-10-16T14:55:05.122Z,24.81
2018-10-16T14:56:05.233Z,24.77
2018-10-16T14:57:58.209Z,24.88
2018-10-16T14:58:58.116Z,24.81
2018-10-16T15:00:50.993Z,24.77
2018-10-16T15:01:51.075Z,24.68
2018-10-16T15:03:43.949Z,24.77
2018-10-16T15:04:43.966Z,24.58
2018-10-16T15:06:36.892Z,24.50
2018-10-16T15:07:36.908Z,24.40
2018-10-16T15:09:29.839Z,24.32
2018-10-16T15:10:29.920Z,24.30
2018-10-16T15:12:22.780Z,24.25
2018-10-16T15:13:22.801Z,24.27
2018-10-16T15:15:15.745Z,24.35
2018-10-16T15:16:15.859Z,24.30
2018-10-16T15:18:09.694Z,24.21
2018-10-16T15:19:09.710Z,24.16
2018-10-16T15:21:02.629Z,24.10
2018-10-16T15:22:02.702Z,24.09
2018-10-16T15:23:55.582Z,24.05
2018-10-16T15:24:55.593Z,23.94
2018-10-16T15:26:48.513Z,23.95
2018-10-16T15:27:48.536Z,23.94
2018-10-16T15:29:41.460Z,23.90
2018-10-16T15:30:41.576Z,23.83
2018-10-16T15:32:34.411Z,23.91
2018-10-16T15:33:34.430Z,23.78
2018-10-16T15:35:27.376Z,23.75
2018-10-16T15:36:27.403Z,23.73
2018-10-16T15:38:20.325Z,23.72
2018-10-16T15:39:20.352Z,23.68
2018-10-16T15:41:13.337Z,23.70
2018-10-16T15:42:13.373Z,23.53
2018-10-16T15:44:06.251Z,23.55
2018-10-16T15:45:06.235Z,23.51
2018-10-16T15:46:59.151Z,23.48
2018-10-16T15:47:59.210Z,23.47
2018-10-16T15:49:52.139Z,23.48
2018-10-16T15:50:52.177Z,23.46
2018-10-16T15:52:45.041Z,23.36
2018-10-16T15:53:45.075Z,23.38
2018-10-16T15:55:38.969Z,23.27
2018-10-16T15:56:38.992Z,23.20
2018-10-16T15:58:31.933Z,23.28
2018-10-16T15:59:31.931Z,23.17
2018-10-16T16:01:24.850Z,23.09
2018-10-16T16:02:24.925Z,23.05
2018-10-16T16:04:17.790Z,22.90
2018-10-16T16:05:17.807Z,22.86
2018-10-16T16:07:10.724Z,22.88
2018-10-16T16:08:10.761Z,22.85
2018-10-16T16:10:03.691Z,22.77
2018-10-16T16:11:03.687Z,22.67
2018-10-16T16:12:56.610Z,22.70
2018-10-16T16:13:56.646Z,22.68
2018-10-16T16:15:49.558Z,22.64
2018-10-16T16:16:49.573Z,22.57
2018-10-16T16:18:42.499Z,22.49
2018-10-16T16:19:42.516Z,22.52
2018-10-16T16:21:35.438Z,22.45
2018-10-16T16:22:35.462Z,22.33
2018-10-16T16:24:28.388Z,22.31
2018-10-16T16:25:28.404Z,22.28
2018-10-16T16:27:21.448Z,22.22
2018-10-16T16:28:21.353Z,22.21
2018-10-16T16:30:14.293Z,22.21
2018-10-16T16:31:14.332Z,22.25
2018-10-16T16:33:07.194Z,22.20
2018-10-16T16:34:07.332Z,22.12
2018-10-16T16:36:00.215Z,21.99
2018-10-16T16:37:00.154Z,21.99
2018-10-16T16:38:54.245Z,22.02
2018-10-16T16:39:54.311Z,21.98
2018-10-16T16:41:47.199Z,21.96
2018-10-16T16:42:47.206Z,21.99
2018-10-16T16:44:40.132Z,21.92
2018-10-16T16:45:40.144Z,21.88
2018-10-16T16:47:33.070Z,21.79
2018-10-16T16:48:33.090Z,21.79
2018-10-16T16:50:26.020Z,21.74
2018-10-16T16:51:26.033Z,21.71
2018-10-16T16:53:18.950Z,21.77
2018-10-16T16:54:18.974Z,21.68
2018-10-16T16:56:12.049Z,21.67
2018-10-16T16:57:11.911Z,21.56
2018-10-16T16:59:04.887Z,21.53
2018-10-16T17:00:04.844Z,21.49
2018-10-16T17:01:57.777Z,21.40
2018-10-16T17:02:57.779Z,21.44
2018-10-16T17:04:50.722Z,21.42
2018-10-16T17:05:50.745Z,21.32
2018-10-16T17:07:43.653Z,21.28
2018-10-16T17:08:43.671Z,21.28
2018-10-16T17:10:36.627Z,21.27
2018-10-16T17:11:36.612Z,21.24
2018-10-16T17:13:30.034Z,21.19
2018-10-16T17:14:30.040Z,21.21
2018-10-16T17:16:22.984Z,21.19
2018-10-16T17:17:22.994Z,21.07
2018-10-16T17:19:15.908Z,21.12
2018-10-16T17:20:15.937Z,20.97
2018-10-16T17:22:08.905Z,20.84
2018-10-16T17:23:08.876Z,20.85
2018-10-16T17:25:01.861Z,20.87
2018-10-16T17:26:01.978Z,20.89
2018-10-16T17:27:54.806Z,20.82
2018-10-16T17:28:54.787Z,20.74
2018-10-16T17:30:47.714Z,20.77
2018-10-16T17:31:47.734Z,20.74
2018-10-16T17:33:40.654Z,20.84
2018-10-16T17:34:40.677Z,20.89
2018-10-16T17:36:34.612Z,20.73
2018-10-16T17:37:34.624Z,20.59
2018-10-16T17:39:27.533Z,20.64
2018-10-16T17:40:27.609Z,20.57
2018-10-16T17:42:20.511Z,20.59
2018-10-16T17:43:20.509Z,20.52
2018-10-16T17:45:13.539Z,20.50
2018-10-16T17:46:13.463Z,20.43
2018-10-16T17:48:06.389Z,20.39
2018-10-16T17:49:06.378Z,20.41
2018-10-16T17:50:59.405Z,20.35
2018-10-16T17:51:59.317Z,20.31
2018-10-16T17:53:52.233Z,20.29
2018-10-16T17:54:52.256Z,20.24
2018-10-16T17:56:45.180Z,20.14
2018-10-16T17:57:45.236Z,20.24
2018-10-16T17:59:38.104Z,20.13
2018-10-16T18:00:38.148Z,20.18
2018-10-16T18:02:31.049Z,20.11
2018-10-16T18:03:31.060Z,20.02
2018-10-16T18:05:23.972Z,20.02
2018-10-16T18:06:24.003Z,19.96
2018-10-16T18:08:16.912Z,19.95
2018-10-16T18:09:17.004Z,19.96
2018-10-16T18:11:09.857Z,19.94
2018-10-16T18:12:09.879Z,19.91
2018-10-16T18:14:03.313Z,19.86
2018-10-16T18:15:03.370Z,19.88
2018-10-16T18:16:56.245Z,19.73
2018-10-16T18:17:56.263Z,19.68
2018-10-16T18:19:49.201Z,19.73
2018-10-16T18:20:49.223Z,19.73
2018-10-16T18:22:42.142Z,19.68
2018-10-16T18:23:42.221Z,19.68
2018-10-16T18:25:35.071Z,19.63
2018-10-16T18:26:35.089Z,19.69
2018-10-16T18:28:28.010Z,19.65
2018-10-16T18:29:28.022Z,19.66
2018-10-16T18:31:21.021Z,19.71
2018-10-16T18:32:21.043Z,19.56
2018-10-16T18:34:13.973Z,19.56